createdAt,value
2023-04-01T00:00:53.876Z,9.70
2023-04-01T00:03:21.924Z,9.80
2023-04-01T00:05:49.044Z,9.80
2023-04-01T00:08:16.601Z,9.80
2023-04-01T00:10:43.729Z,9.80
2023-04-01T00:13:11.000Z,9.80
2023-04-01T00:15:38.130Z,9.80
2023-04-01T00:18:05.763Z,9.70
2023-04-01T00:20:32.704Z,9.80
2023-04-01T00:22:59.663Z,9.80
2023-04-01T00:25:26.748Z,9.80
2023-04-01T00:27:53.711Z,9.80
2023-04-01T00:30:22.029Z,9.80
2023-04-01T00:32:55.179Z,9.80
2023-04-01T00:35:22.211Z,9.80
2023-04-01T00:37:49.178Z,9.90
2023-04-01T00:40:24.464Z,9.80
2023-04-01T00:42:51.406Z,9.80
2023-04-01T00:45:26.791Z,9.80
2023-04-01T00:47:54.484Z,9.80
2023-04-01T00:50:23.384Z,9.70
2023-04-01T00:52:50.897Z,9.70
2023-04-01T00:55:18.517Z,9.70
2023-04-01T00:57:47.115Z,9.70
2023-04-01T01:00:15.940Z,9.70
2023-04-01T01:02:45.494Z,9.80
2023-04-01T01:05:14.595Z,9.80
2023-04-01T01:08:02.577Z,9.80
2023-04-01T01:10:34.631Z,9.70
2023-04-01T01:13:04.624Z,9.80
2023-04-01T01:15:34.623Z,9.70
2023-04-01T01:18:15.649Z,9.70
2023-04-01T01:20:51.590Z,9.70
2023-04-01T01:23:18.598Z,9.60
2023-04-01T01:26:12.019Z,9.60
2023-04-01T01:28:45.664Z,9.70
2023-04-01T01:31:26.004Z,9.70
2023-04-01T01:33:56.055Z,9.70
2023-04-01T01:36:24.478Z,9.70
2023-04-01T01:38:52.202Z,9.70
2023-04-01T01:41:20.810Z,9.70
2023-04-01T01:43:49.905Z,9.70
2023-04-01T01:46:20.499Z,9.70
2023-04-01T01:48:48.635Z,9.60
2023-04-01T01:51:15.795Z,9.60
2023-04-01T01:53:42.780Z,9.50
2023-04-01T01:56:11.670Z,9.60
2023-04-01T01:58:45.705Z,9.50
2023-04-01T02:01:21.535Z,9.60
2023-04-01T02:03:49.099Z,9.70
2023-04-01T02:06:17.935Z,9.70
2023-04-01T02:08:51.056Z,9.80
2023-04-01T02:11:22.683Z,9.80
2023-04-01T02:14:21.133Z,9.80
2023-04-01T02:16:54.770Z,9.90
2023-04-01T02:19:23.844Z,9.90
2023-04-01T02:21:54.191Z,9.90
2023-04-01T02:24:23.486Z,9.80
2023-04-01T02:26:52.032Z,9.80
2023-04-01T02:29:24.152Z,9.80
2023-04-01T02:31:51.720Z,9.80
2023-04-01T02:34:19.929Z,9.70
2023-04-01T02:36:48.011Z,9.70
2023-04-01T02:39:15.123Z,9.80
2023-04-01T02:41:43.090Z,9.80
2023-04-01T02:44:10.982Z,9.70
2023-04-01T02:46:38.330Z,9.80
2023-04-01T02:49:05.393Z,9.70
2023-04-01T02:51:33.080Z,9.70
2023-04-01T02:54:00.064Z,9.70
2023-04-01T02:56:27.329Z,9.70
2023-04-01T02:58:54.931Z,9.70
2023-04-01T03:01:22.326Z,9.70
2023-04-01T03:03:49.487Z,9.70
2023-04-01T03:06:17.571Z,9.80
2023-04-01T03:08:45.488Z,9.80
2023-04-01T03:11:13.071Z,9.80
2023-04-01T03:13:40.125Z,9.80
2023-04-01T03:16:07.283Z,9.80
2023-04-01T03:18:35.960Z,9.80
2023-04-01T03:21:19.641Z,9.80
2023-04-01T03:23:46.630Z,9.80
2023-04-01T03:26:14.491Z,9.80
2023-04-01T03:28:41.996Z,9.80
2023-04-01T03:31:09.246Z,9.80
2023-04-01T03:33:43.010Z,9.80
2023-04-01T03:36:10.050Z,9.90
2023-04-01T03:38:37.124Z,9.90
2023-04-01T03:41:04.477Z,9.90
2023-04-01T03:43:33.358Z,9.90
2023-04-01T03:46:01.123Z,9.90
2023-04-01T03:48:28.473Z,9.90
2023-04-01T03:50:55.495Z,9.90
2023-04-01T03:53:23.550Z,9.90
2023-04-01T03:55:52.402Z,9.90
2023-04-01T03:58:19.487Z,9.80
2023-04-01T04:00:46.734Z,9.80
2023-04-01T04:03:13.870Z,9.70
2023-04-01T04:05:47.166Z,9.80
2023-04-01T04:08:15.447Z,9.70
2023-04-01T04:10:42.572Z,9.70
2023-04-01T04:13:09.602Z,9.70
2023-04-01T04:15:41.410Z,9.70
2023-04-01T04:18:08.601Z,9.70
2023-04-01T04:20:36.068Z,9.70
2023-04-01T04:23:03.128Z,9.60
2023-04-01T04:25:30.524Z,9.50
2023-04-01T04:27:58.053Z,9.50
2023-04-01T04:30:25.034Z,9.50
2023-04-01T04:32:52.088Z,9.40
2023-04-01T04:35:19.080Z,9.60
2023-04-01T04:37:46.401Z,9.50
2023-04-01T04:40:14.138Z,9.50
2023-04-01T04:42:42.779Z,9.60
2023-04-01T04:45:13.786Z,9.50
2023-04-01T04:47:47.156Z,9.60
2023-04-01T04:50:14.252Z,9.60
2023-04-01T04:52:41.676Z,9.60
2023-04-01T04:55:08.919Z,9.70
2023-04-01T04:57:36.327Z,9.70
2023-04-01T05:00:03.779Z,9.70
2023-04-01T05:03:09.880Z,9.80
2023-04-01T05:05:37.098Z,9.80
2023-04-01T05:08:05.239Z,9.90
2023-04-01T05:10:32.565Z,9.80
2023-04-01T05:13:00.127Z,9.90
2023-04-01T05:15:27.186Z,9.90
2023-04-01T05:17:55.466Z,9.90
2023-04-01T05:20:22.475Z,9.90
2023-04-01T05:22:49.500Z,10.00
2023-04-01T05:25:16.796Z,9.90
2023-04-01T05:27:44.218Z,10.00
2023-04-01T05:30:11.871Z,10.00
2023-04-01T05:32:59.119Z,9.90
2023-04-01T05:35:26.257Z,10.00
2023-04-01T05:37:53.325Z,10.00
2023-04-01T05:40:21.594Z,10.10
2023-04-01T05:42:48.530Z,10.20
2023-04-01T05:45:16.912Z,10.10
2023-04-01T05:48:06.919Z,10.10
2023-04-01T05:50:40.969Z,10.20
2023-04-01T05:53:08.091Z,10.20
2023-04-01T05:55:37.036Z,10.20
2023-04-01T05:58:04.816Z,10.20
2023-04-01T06:00:32.133Z,10.20
2023-04-01T06:03:01.105Z,10.30
2023-04-01T06:05:29.538Z,10.30
2023-04-01T06:07:59.118Z,10.30
2023-04-01T06:10:38.694Z,10.30
2023-04-01T06:13:06.101Z,10.30
2023-04-01T06:15:53.663Z,10.20
2023-04-01T06:18:29.731Z,10.30
2023-04-01T06:20:59.871Z,10.30
2023-04-01T06:23:45.751Z,10.30
2023-04-01T06:26:18.439Z,10.30
2023-04-01T06:28:45.640Z,10.20
2023-04-01T06:31:12.852Z,10.30
2023-04-01T06:33:47.747Z,10.30
2023-04-01T06:36:14.828Z,10.20
2023-04-01T06:38:47.294Z,10.20
2023-04-01T06:41:17.884Z,10.10
2023-04-01T06:43:55.020Z,10.10
2023-04-01T06:46:57.076Z,10.10
2023-04-01T06:50:14.632Z,10.10
2023-04-01T06:53:08.914Z,10.00
2023-04-01T06:55:57.159Z,9.90
2023-04-01T06:58:46.165Z,9.90
2023-04-01T07:01:36.827Z,10.10
2023-04-01T07:04:22.766Z,10.20
2023-04-01T07:07:26.663Z,10.10
2023-04-01T07:10:14.932Z,9.90
2023-04-01T07:13:03.614Z,9.90
2023-04-01T07:16:04.257Z,9.80
2023-04-01T07:18:53.875Z,9.70
2023-04-01T07:21:27.238Z,9.70
2023-04-01T07:23:59.041Z,9.60
2023-04-01T07:26:51.651Z,9.50
2023-04-01T07:29:22.534Z,9.40
2023-04-01T07:31:52.530Z,9.50
2023-04-01T07:34:22.754Z,9.50
2023-04-01T07:36:54.298Z,9.40
2023-04-01T07:39:33.628Z,9.50
2023-04-01T07:42:12.177Z,9.50
2023-04-01T07:44:39.168Z,9.50
2023-04-01T07:47:09.234Z,9.50
2023-04-01T07:49:41.897Z,9.40
2023-04-01T07:52:19.838Z,9.40
2023-04-01T07:55:04.551Z,9.40
2023-04-01T07:57:42.713Z,9.40
2023-04-01T08:00:19.700Z,9.30
2023-04-01T08:03:17.022Z,9.20
2023-04-01T08:05:48.064Z,9.20
2023-04-01T08:08:37.355Z,9.10
2023-04-01T08:11:10.584Z,9.20
2023-04-01T08:13:46.003Z,9.10
2023-04-01T08:16:16.318Z,9.10
2023-04-01T08:18:51.592Z,9.10
2023-04-01T08:21:24.732Z,9.20
2023-04-01T08:23:53.214Z,9.30
2023-04-01T08:26:23.211Z,9.30
2023-04-01T08:28:55.532Z,9.30
2023-04-01T08:31:27.807Z,9.20
2023-04-01T08:33:55.799Z,9.30
2023-04-01T08:36:29.702Z,9.20
2023-04-01T08:39:21.515Z,9.30
2023-04-01T08:41:53.045Z,9.30
2023-04-01T08:44:50.889Z,9.30
2023-04-01T08:47:29.945Z,9.30
2023-04-01T08:50:00.371Z,9.20
2023-04-01T08:53:02.566Z,9.30
2023-04-01T08:55:36.332Z,9.40
2023-04-01T08:58:20.713Z,9.40
2023-04-01T09:01:28.931Z,9.50
2023-04-01T09:03:59.561Z,9.70
2023-04-01T09:06:30.406Z,9.80
2023-04-01T09:09:17.003Z,9.80
2023-04-01T09:12:03.027Z,9.80
2023-04-01T09:14:42.149Z,9.80
2023-04-01T09:17:16.876Z,9.80
2023-04-01T09:19:56.214Z,9.50
2023-04-01T09:22:26.416Z,9.40
2023-04-01T09:25:13.085Z,9.50
2023-04-01T09:27:46.470Z,9.40
2023-04-01T09:30:22.890Z,9.40
2023-04-01T09:33:02.079Z,9.10
2023-04-01T09:35:49.360Z,9.10
2023-04-01T09:38:23.887Z,9.00
2023-04-01T09:40:51.546Z,9.00
2023-04-01T09:43:28.003Z,9.00
2023-04-01T09:46:03.692Z,9.00
2023-04-01T09:48:49.735Z,9.10
2023-04-01T09:51:17.922Z,9.10
2023-04-01T09:53:51.774Z,9.20
2023-04-01T09:56:29.499Z,9.30
2023-04-01T09:59:02.863Z,9.30
2023-04-01T10:02:07.012Z,9.30
2023-04-01T10:04:53.052Z,9.40
2023-04-01T10:07:35.518Z,9.50
2023-04-01T10:10:06.184Z,9.40
2023-04-01T10:12:56.207Z,9.50
2023-04-01T10:15:26.973Z,9.60
2023-04-01T10:18:00.179Z,9.60
2023-04-01T10:20:27.351Z,9.40
2023-04-01T10:23:06.913Z,9.50
2023-04-01T10:25:47.434Z,9.50
2023-04-01T10:28:21.833Z,9.50
2023-04-01T10:31:12.838Z,9.40
2023-04-01T10:33:51.914Z,9.40
2023-04-01T10:36:18.879Z,9.30
2023-04-01T10:38:51.497Z,9.30
2023-04-01T10:41:25.988Z,9.30
2023-04-01T10:44:30.072Z,9.40
2023-04-01T10:47:20.610Z,9.40
2023-04-01T10:50:14.240Z,9.60
2023-04-01T10:52:53.461Z,9.60
2023-04-01T10:55:56.147Z,9.50
2023-04-01T10:58:53.960Z,9.50
2023-04-01T11:01:50.639Z,9.50
2023-04-01T11:05:20.790Z,9.40
2023-04-01T11:08:02.828Z,9.40
2023-04-01T11:10:57.002Z,9.40
2023-04-01T11:13:33.769Z,9.40
2023-04-01T11:16:06.979Z,9.50
2023-04-01T11:18:34.044Z,9.70
2023-04-01T11:21:01.044Z,9.60
2023-04-01T11:23:28.436Z,9.50
2023-04-01T11:25:58.788Z,9.30
2023-04-01T11:28:50.431Z,9.50
2023-04-01T11:31:19.000Z,9.40
2023-04-01T11:33:46.167Z,9.40
2023-04-01T11:36:14.206Z,9.60
2023-04-01T11:39:00.774Z,9.50
2023-04-01T11:41:57.150Z,9.60
2023-04-01T11:44:53.400Z,9.50
2023-04-01T11:47:59.743Z,9.50
2023-04-01T11:50:35.382Z,9.40
2023-04-01T11:53:20.165Z,9.40
2023-04-01T11:55:59.142Z,9.20
2023-04-01T11:58:44.715Z,9.30
2023-04-01T12:01:40.834Z,9.20
2023-04-01T12:04:33.097Z,9.20
2023-04-01T12:07:17.138Z,9.30
2023-04-01T12:10:04.696Z,9.40
2023-04-01T12:12:57.983Z,9.30
2023-04-01T12:15:27.350Z,9.40
2023-04-01T12:17:57.390Z,9.50
2023-04-01T12:20:24.328Z,9.60
2023-04-01T12:22:57.067Z,9.80
2023-04-01T12:25:30.410Z,9.90
2023-04-01T12:28:12.787Z,10.00
2023-04-01T12:30:46.092Z,9.90
2023-04-01T12:33:21.926Z,10.10
2023-04-01T12:35:58.077Z,9.80
2023-04-01T12:38:25.047Z,9.90
2023-04-01T12:40:57.764Z,10.10
2023-04-01T12:43:27.860Z,9.90
2023-04-01T12:46:13.864Z,9.60
2023-04-01T12:48:43.844Z,9.60
2023-04-01T12:51:35.550Z,9.90
2023-04-01T12:54:25.564Z,9.80
2023-04-01T12:56:55.689Z,9.80
2023-04-01T12:59:28.698Z,9.80
2023-04-01T13:02:01.433Z,10.00
2023-04-01T13:04:31.320Z,10.20
2023-04-01T13:06:58.264Z,10.20
2023-04-01T13:09:34.066Z,10.30
2023-04-01T13:12:03.905Z,10.00
2023-04-01T13:14:35.630Z,10.10
2023-04-01T13:17:18.711Z,10.20
2023-04-01T13:20:02.033Z,10.30
2023-04-01T13:22:41.037Z,10.80
2023-04-01T13:25:16.249Z,10.10
2023-04-01T13:27:47.079Z,10.10
2023-04-01T13:30:33.992Z,10.00
2023-04-01T13:33:19.942Z,10.20
2023-04-01T13:35:59.752Z,10.30
2023-04-01T13:38:42.786Z,10.30
2023-04-01T13:41:13.758Z,10.30
2023-04-01T13:43:47.666Z,10.40
2023-04-01T13:46:14.664Z,10.40
2023-04-01T13:49:00.126Z,10.40
2023-04-01T13:51:41.703Z,10.40
2023-04-01T13:54:24.016Z,10.40
2023-04-01T13:57:06.092Z,10.20
2023-04-01T13:59:39.252Z,10.20
2023-04-01T14:02:09.191Z,10.30
2023-04-01T14:04:36.293Z,10.50
2023-04-01T14:07:09.361Z,10.40
2023-04-01T14:09:42.305Z,10.50
2023-04-01T14:12:09.210Z,10.60
2023-04-01T14:14:54.788Z,10.70
2023-04-01T14:17:33.743Z,10.80
2023-04-01T14:20:03.029Z,10.80
2023-04-01T14:22:33.878Z,10.70
2023-04-01T14:25:19.767Z,10.80
2023-04-01T14:28:01.260Z,10.60
2023-04-01T14:30:37.462Z,10.50
2023-04-01T14:33:04.559Z,10.30
2023-04-01T14:35:40.678Z,10.20
2023-04-01T14:38:26.550Z,10.20
2023-04-01T14:40:58.381Z,10.20
2023-04-01T14:43:34.944Z,10.20
2023-04-01T14:46:14.369Z,10.20
2023-04-01T14:48:44.102Z,10.20
2023-04-01T14:51:32.032Z,10.40
2023-04-01T14:54:07.193Z,10.40
2023-04-01T14:56:38.166Z,10.60
2023-04-01T14:59:09.532Z,10.70
2023-04-01T15:02:03.155Z,10.70
2023-04-01T15:04:36.236Z,10.50
2023-04-01T15:07:06.344Z,10.40
2023-04-01T15:09:33.301Z,10.60
2023-04-01T15:12:07.547Z,10.80
2023-04-01T15:14:39.607Z,11.00
2023-04-01T15:17:15.867Z,11.00
2023-04-01T15:20:01.599Z,10.90
2023-04-01T15:22:31.721Z,10.70
2023-04-01T15:25:17.174Z,10.50
2023-04-01T15:27:46.918Z,10.40
2023-04-01T15:30:13.878Z,10.30
2023-04-01T15:32:40.886Z,10.20
2023-04-01T15:35:14.726Z,10.30
2023-04-01T15:37:54.035Z,10.30
2023-04-01T15:40:21.246Z,10.40
2023-04-01T15:42:51.202Z,10.50
2023-04-01T15:45:23.602Z,10.60
2023-04-01T15:47:59.376Z,10.60
2023-04-01T15:50:26.341Z,10.60
2023-04-01T15:53:06.800Z,10.60
2023-04-01T15:55:34.203Z,10.50
2023-04-01T15:58:19.769Z,10.40
2023-04-01T16:00:46.841Z,10.40
2023-04-01T16:03:13.952Z,10.50
2023-04-01T16:05:43.747Z,10.60
2023-04-01T16:08:35.018Z,10.50
2023-04-01T16:11:21.777Z,10.60
2023-04-01T16:14:07.556Z,10.70
2023-04-01T16:16:37.463Z,10.60
2023-04-01T16:19:12.861Z,10.40
2023-04-01T16:21:53.896Z,10.50
2023-04-01T16:24:35.897Z,10.50
2023-04-01T16:27:09.492Z,10.50
2023-04-01T16:29:49.375Z,10.60
2023-04-01T16:32:28.275Z,10.70
2023-04-01T16:35:05.500Z,10.80
2023-04-01T16:37:35.482Z,10.70
2023-04-01T16:40:11.033Z,10.70
2023-04-01T16:42:52.943Z,10.70
2023-04-01T16:45:40.807Z,10.50
2023-04-01T16:48:12.572Z,10.50
2023-04-01T16:50:47.885Z,10.50
2023-04-01T16:53:14.814Z,10.40
2023-04-01T16:55:54.126Z,10.20
2023-04-01T16:58:33.067Z,10.10
2023-04-01T17:01:02.731Z,10.00
2023-04-01T17:03:41.824Z,9.90
2023-04-01T17:06:16.063Z,9.90
2023-04-01T17:08:42.999Z,9.90
2023-04-01T17:11:13.941Z,9.90
2023-04-01T17:13:57.256Z,9.90
2023-04-01T17:16:43.323Z,10.00
2023-04-01T17:19:25.405Z,10.00
2023-04-01T17:22:04.006Z,10.00
2023-04-01T17:24:33.797Z,10.00
2023-04-01T17:27:19.607Z,9.90
2023-04-01T17:30:03.346Z,10.00
2023-04-01T17:32:43.796Z,10.00
2023-04-01T17:35:23.784Z,9.80
2023-04-01T17:37:51.035Z,9.80
2023-04-01T17:40:32.621Z,9.70
2023-04-01T17:43:22.876Z,9.60
2023-04-01T17:46:02.592Z,9.60
2023-04-01T17:48:55.783Z,9.90
2023-04-01T17:51:31.218Z,9.50
2023-04-01T17:54:04.384Z,9.30
2023-04-01T17:56:43.596Z,9.30
2023-04-01T17:59:40.402Z,9.20
2023-04-01T18:02:10.477Z,9.10
2023-04-01T18:05:00.911Z,9.00
2023-04-01T18:07:33.413Z,9.00
2023-04-01T18:10:06.082Z,8.90
2023-04-01T18:12:42.044Z,8.90
2023-04-01T18:15:12.081Z,8.90
2023-04-01T18:17:58.193Z,9.00
2023-04-01T18:20:38.703Z,9.00
2023-04-01T18:23:14.420Z,8.90
2023-04-01T18:25:43.563Z,9.00
2023-04-01T18:28:18.164Z,8.90
2023-04-01T18:30:51.636Z,8.90
2023-04-01T18:33:37.496Z,8.80
2023-04-01T18:36:11.772Z,8.90
2023-04-01T18:38:46.786Z,8.70
2023-04-01T18:41:15.179Z,8.80
2023-04-01T18:43:48.516Z,8.80
2023-04-01T18:46:38.729Z,8.80
2023-04-01T18:49:22.510Z,8.70
2023-04-01T18:51:54.806Z,8.70
2023-04-01T18:54:25.346Z,8.60
2023-04-01T18:56:52.377Z,8.70
2023-04-01T18:59:30.993Z,8.60
2023-04-01T19:02:16.529Z,8.60
2023-04-01T19:05:02.008Z,8.60
2023-04-01T19:07:37.785Z,8.60
2023-04-01T19:10:24.601Z,8.60
2023-04-01T19:12:51.591Z,8.60
2023-04-01T19:15:27.351Z,8.60
2023-04-01T19:18:03.207Z,8.60
2023-04-01T19:20:39.299Z,8.40
2023-04-01T19:23:18.717Z,8.40
2023-04-01T19:25:54.788Z,8.40
2023-04-01T19:28:24.772Z,8.60
2023-04-01T19:30:51.693Z,8.50
2023-04-01T19:33:19.660Z,8.60
2023-04-01T19:35:46.959Z,8.60
2023-04-01T19:38:22.792Z,8.50
2023-04-01T19:40:49.641Z,8.60
2023-04-01T19:43:27.498Z,8.60
2023-04-01T19:46:00.578Z,8.60
2023-04-01T19:48:30.351Z,8.60
2023-04-01T19:51:00.990Z,8.60
2023-04-01T19:53:37.147Z,8.60
2023-04-01T19:56:17.884Z,8.60
2023-04-01T19:58:53.950Z,8.60
2023-04-01T20:01:44.875Z,8.60
2023-04-01T20:04:32.771Z,8.60
2023-04-01T20:07:10.584Z,8.60
2023-04-01T20:09:51.919Z,8.80
2023-04-01T20:12:31.654Z,8.70
2023-04-01T20:14:59.681Z,8.70
2023-04-01T20:17:29.766Z,8.70
2023-04-01T20:20:16.947Z,8.70
2023-04-01T20:22:46.745Z,8.80
2023-04-01T20:25:28.084Z,8.80
2023-04-01T20:28:01.795Z,8.90
2023-04-01T20:30:37.744Z,8.80
2023-04-01T20:33:16.708Z,8.80
2023-04-01T20:35:51.882Z,8.70
2023-04-01T20:38:28.053Z,8.80
2023-04-01T20:41:03.252Z,8.80
2023-04-01T20:43:30.167Z,8.80
2023-04-01T20:46:17.192Z,8.70
2023-04-01T20:48:51.148Z,8.70
2023-04-01T20:51:22.919Z,8.70
2023-04-01T20:53:56.090Z,8.80
2023-04-01T20:56:29.008Z,8.80
2023-04-01T20:59:06.069Z,8.80
2023-04-01T21:01:42.128Z,8.80
2023-04-01T21:04:10.606Z,8.80
2023-04-01T21:06:41.774Z,8.90
2023-04-01T21:09:11.526Z,8.80
2023-04-01T21:11:47.467Z,8.90
2023-04-01T21:14:17.238Z,8.80
2023-04-01T21:17:02.690Z,8.80
2023-04-01T21:19:51.109Z,8.80
2023-04-01T21:22:27.147Z,8.90
2023-04-01T21:25:12.772Z,8.90
2023-04-01T21:27:48.672Z,8.90
2023-04-01T21:30:34.028Z,8.90
2023-04-01T21:33:19.785Z,8.90
2023-04-01T21:35:49.539Z,8.90
2023-04-01T21:38:42.562Z,9.00
2023-04-01T21:44:17.532Z,8.90
2023-04-01T21:47:03.430Z,9.00
2023-04-01T21:49:36.772Z,9.10
2023-04-01T21:52:11.880Z,8.90
2023-04-01T21:54:51.251Z,9.10
2023-04-01T21:57:18.779Z,9.10
2023-04-01T21:59:45.721Z,8.30
2023-04-01T22:02:21.583Z,9.00
2023-04-01T22:05:04.122Z,9.10
2023-04-01T22:07:38.268Z,9.00
2023-04-01T22:10:16.506Z,9.10
2023-04-01T22:12:49.534Z,9.00
2023-04-01T22:15:33.411Z,9.00
2023-04-01T22:18:07.660Z,9.10
2023-04-01T22:20:38.221Z,9.10
2023-04-01T22:23:05.454Z,9.10
2023-04-01T22:25:46.464Z,9.00
2023-04-01T22:28:19.469Z,9.00
2023-04-01T22:30:50.813Z,9.10
2023-04-01T22:33:20.736Z,9.00
2023-04-01T22:35:50.996Z,9.10
2023-04-01T22:38:36.633Z,9.10
2023-04-01T22:41:29.855Z,9.10
2023-04-01T22:43:57.810Z,9.10
2023-04-01T22:46:38.298Z,9.10
2023-04-01T22:49:05.436Z,9.00
2023-04-01T22:51:46.224Z,9.10
2023-04-01T22:54:13.194Z,8.90
2023-04-01T22:56:42.753Z,8.90
2023-04-01T22:59:17.130Z,8.80
2023-04-01T23:01:47.155Z,8.70
2023-04-01T23:04:17.744Z,8.70
2023-04-01T23:06:47.816Z,8.80
2023-04-01T23:09:20.783Z,8.80
2023-04-01T23:11:53.870Z,8.90
2023-04-01T23:14:29.989Z,8.90
2023-04-01T23:17:15.668Z,8.80
2023-04-01T23:19:57.645Z,8.80
2023-04-01T23:22:30.471Z,8.80
2023-04-01T23:25:06.727Z,8.80
2023-04-01T23:27:44.751Z,8.60
2023-04-01T23:30:30.905Z,8.70
2023-04-01T23:33:10.535Z,8.70
2023-04-01T23:35:47.731Z,8.70
2023-04-01T23:38:14.794Z,8.70
2023-04-01T23:40:42.004Z,8.60
2023-04-01T23:43:16.214Z,8.60
2023-04-01T23:45:43.754Z,8.60
2023-04-01T23:48:16.332Z,8.50
2023-04-01T23:50:44.429Z,8.60
2023-04-01T23:53:24.351Z,8.50
2023-04-01T23:55:52.137Z,8.40
2023-04-01T23:58:28.865Z,8.50
